Terminal Aerodrome Forecast
Issued by NWS Spokane, WA

Current Version | Previous Version | Text Only | Print | Product List | Glossary On
Versions: 1 2 3 4 5 6 7 8 9 10 11 12 13 14 15 16 17 18 19 20 21 22 23 24 25 26 27 28 29 30 31 32 33 34 35 36 37 38
834
FTUS46 KOTX 211139
TAFEAT
TAF
KEAT 211139Z 2112/2212 00000KT P6SM SKC
     FM211800 VRB03KT P6SM SCT150 BKN200
     FM220100 33004KT P6SM SCT040 BKN050 OVC100
     FM220500 30004KT P6SM SCT025 OVC040=

USA.gov is the U.S. government's official web portal to all federal, state and local government web resources and services.